Latest Weather Observations for Mount Gellibrand

IDV60801

Issued at 2:32 pm EST Monday 24 July 2017 (issued every 30 minutes, with the page automatically refreshed every 10 minutes)

About weather observations | Map of weather stations | Latest weather observations for VIC | Other Formats
Station Details ID: 090035 Name: MOUNT GELLIBRAND Lat: -38.23 Lon: 143.79 Height: 261.0 m
Data from the previous 72 hours. | See also: Recent months at Mount Gellibrand
Date/Time
EST
Temp
°C
App
Temp
°C
Dew
Point
°C
Rel
Hum
%
Delta-T
°C
Wind Press
QNH
hPa
Press
MSL
hPa
Rain since
9am
mm
Dir  Spd
km/h
Gust
km/h
Spd
kts
Gust
kts
24/02:30pm 11.8 5.4 8.5 80 1.7 WNW 32 39 17 21 1017.2 1017.6 0.0
24/02:00pm 12.2 6.1 9.6 84 1.3 WNW 32 41 17 22 1017.1 1017.5 0.0
24/01:30pm 12.4 6.7 11.0 91 0.7 NW 32 44 17 24 1017.4 1017.8 0.0
24/01:00pm 11.1 4.3 10.5 96 0.3 NW 37 46 20 25 1017.7 1018.1 0.0
24/12:30pm 11.7 6.2 11.7 100 0.0 NW 32 43 17 23 1018.1 1018.5 0.0
24/12:00pm 11.8 6.7 11.8 100 0.0 NW 30 35 16 19 1018.4 1018.8 0.0
24/11:30am 10.9 5.5 10.9 100 0.0 WNW 30 37 16 20 1018.8 1019.2 0.0
24/11:00am 9.2 4.1 9.2 100 0.0 NW 26 32 14 17 1019.2 1019.7 0.0
24/10:30am 8.7 3.9 8.7 100 0.0 NW 24 30 13 16 1019.3 1019.8 0.0
24/10:00am 8.1 3.9 8.1 100 0.0 WNW 20 26 11 14 1019.3 1019.8 0.0
24/09:30am 7.3 2.9 7.3 100 0.0 WNW 20 28 11 15 1019.1 1019.6 0.0
24/09:00am 6.9 1.6 6.9 100 0.0 WNW 24 26 13 14 1018.8 1019.2 4.6
24/08:30am 6.7 1.8 6.7 100 0.0 WNW 22 28 12 15 1018.3 1018.7 4.6
24/08:00am 6.3 1.3 6.3 100 0.0 WNW 22 26 12 14 1018.1 1018.5 4.6
24/07:30am 6.4 1.4 6.4 100 0.0 WNW 22 26 12 14 1017.8 1018.2 4.6
24/07:00am 6.4 1.8 6.4 100 0.0 WNW 20 24 11 13 1017.7 1018.1 4.6
24/06:30am 6.9 2.0 6.9 100 0.0 WNW 22 28 12 15 1017.5 1017.9 4.6
24/06:00am 6.5 2.1 6.5 100 0.0 WNW 19 20 10 11 1017.4 1017.8 4.6
24/05:30am 6.2 1.1 6.2 100 0.0 WNW 22 28 12 15 1017.3 1017.7 4.4
24/05:00am 6.3 1.3 6.3 100 0.0 WNW 22 28 12 15 1016.9 1017.3 3.6
24/04:30am 6.7 1.8 6.7 100 0.0 WNW 22 28 12 15 1016.7 1017.1 3.6
24/04:00am 6.9 2.4 6.9 100 0.0 WNW 20 26 11 14 1016.7 1017.1 3.6
24/03:30am 7.0 3.1 7.0 100 0.0 WNW 17 20 9 11 1016.6 1017.0 3.4
24/03:00am 7.1 2.8 7.1 100 0.0 W 19 20 10 11 1016.7 1017.1 3.4
24/02:30am 7.4 3.2 7.4 100 0.0 W 19 22 10 12 1016.5 1016.9 3.4
24/02:00am 7.5 3.3 7.5 100 0.0 WNW 19 24 10 13 1016.3 1016.7 3.4
24/01:30am 7.7 3.6 7.7 100 0.0 WNW 19 24 10 13 1016.1 1016.5 3.2
24/01:00am 7.0 3.1 7.0 100 0.0 W 17 20 9 11 1016.0 1016.4 3.2
24/12:30am 7.4 3.2 7.4 100 0.0 W 19 22 10 12 1015.9 1016.3 3.2
24/12:00am 7.7 3.6 7.7 100 0.0 W 19 22 10 12 1016.0 1016.4 3.2
 
Date/Time
EST
Temp
°C
App
Temp
°C
Dew
Point
°C
Rel
Hum
%
Delta-T
°C
Wind Press
QNH
hPa
Press
MSL
hPa
Rain since
9am
mm
Dir  Spd
km/h
Gust
km/h
Spd
kts
Gust
kts
23/11:30pm 7.8 3.7 7.8 100 0.0 WNW 19 20 10 11 1016.0 1016.4 3.2
23/11:00pm 7.6 3.2 7.6 100 0.0 W 20 24 11 13 1015.7 1016.2 3.2
23/10:30pm 7.3 3.1 7.3 100 0.0 WNW 19 22 10 12 1015.4 1015.8 3.2
23/10:00pm 7.6 3.2 7.6 100 0.0 W 20 24 11 13 1015.2 1015.6 3.2
23/09:30pm 7.9 2.9 7.9 100 0.0 W 24 28 13 15 1015.0 1015.4 3.2
23/09:00pm 7.9 3.2 7.9 100 0.0 WNW 22 26 12 14 1014.8 1015.2 3.2
23/08:30pm 8.0 3.4 8.0 100 0.0 WNW 22 28 12 15 1014.6 1015.0 3.2
23/08:00pm 8.2 4.0 8.2 100 0.0 W 20 26 11 14 1014.1 1014.5 3.2
23/07:30pm 8.2 2.5 8.2 100 0.0 W 28 32 15 17 1013.7 1014.1 3.2
23/07:00pm 8.6 3.3 8.6 100 0.0 W 26 32 14 17 1013.4 1013.8 3.2
23/06:30pm 8.7 3.9 8.7 100 0.0 W 24 28 13 15 1013.1 1013.5 3.0
23/06:00pm 8.8 4.4 8.8 100 0.0 W 22 28 12 15 1012.8 1013.2 3.0
23/05:30pm 9.1 4.6 8.6 97 0.2 W 22 32 12 17 1012.5 1012.8 3.0
23/05:00pm 9.6 3.2 8.4 92 0.6 WSW 32 43 17 23 1011.9 1012.2 3.0
23/04:30pm 10.2 2.5 8.6 90 0.8 WSW 39 48 21 26 1011.4 1011.8 3.0
23/04:19pm 10.6 4.2 8.5 87 1.0 WSW 32 50 17 27 1011.3 1011.7 3.0
23/04:00pm 10.6 2.8 8.4 86 1.1 WSW 39 46 21 25 1011.1 1011.5 3.0
23/03:30pm 12.0 4.6 8.5 79 1.8 W 37 50 20 27 1010.5 1010.9 3.0
23/03:00pm 11.5 4.9 9.9 90 0.8 W 35 43 19 23 1010.3 1010.7 3.0
23/02:30pm 11.3 4.4 10.2 93 0.6 WNW 37 46 20 25 1010.0 1010.4 3.0
23/02:00pm 11.1 5.1 10.9 99 0.1 WNW 33 43 18 23 1009.9 1010.3 3.0
23/01:30pm 10.1 3.5 10.1 100 0.0 WNW 35 44 19 24 1009.9 1010.3 3.0
23/01:00pm 9.8 2.0 9.8 100 0.0 WNW 41 48 22 26 1010.0 1010.4 3.0
23/12:30pm 9.4 1.9 9.4 100 0.0 W 39 50 21 27 1010.3 1010.7 2.0
23/12:00pm 10.3 3.0 10.3 100 0.0 W 39 46 21 25 1010.4 1010.8 0.4
23/11:30am 10.6 3.0 10.6 100 0.0 WNW 41 52 22 28 1010.6 1011.0 0.0
23/11:00am 10.6 2.3 10.1 97 0.3 WNW 44 54 24 29 1010.6 1011.0 0.0
23/10:30am 10.2 1.0 9.6 96 0.3 WNW 48 56 26 30 1010.6 1011.0 0.0
23/10:00am 10.9 1.8 9.7 92 0.6 WNW 48 57 26 31 1010.3 1010.7 0.0
23/09:30am 9.7 1.2 9.1 96 0.3 NW 44 54 24 29 1010.2 1010.6 0.0
23/09:00am 8.8 0.7 8.7 99 0.0 NW 41 46 22 25 1010.1 1010.5 0.2
23/08:30am 8.6 0.1 8.5 99 0.0 NW 43 50 23 27 1010.0 1010.4 0.2
23/08:00am 8.1 -0.2 7.7 97 0.2 NW 41 48 22 26 1010.0 1010.4 0.2
23/07:30am 8.2 -0.6 7.4 95 0.4 NW 43 50 23 27 1009.8 1010.2 0.2
23/07:00am 7.5 -1.5 6.6 94 0.4 NW 43 48 23 26 1009.3 1009.6 0.2
23/06:30am 7.3 -1.7 6.2 93 0.5 NW 43 50 23 27 1009.3 1009.6 0.2
23/06:00am 6.7 -2.5 5.3 91 0.6 NW 43 50 23 27 1009.0 1009.3 0.2
23/05:30am 6.3 -2.3 4.9 91 0.6 NW 39 44 21 24 1009.0 1009.3 0.2
23/05:00am 6.1 -2.9 4.7 91 0.6 NW 41 46 22 25 1009.0 1009.3 0.2
23/04:30am 5.9 -2.8 4.1 88 0.8 NW 39 44 21 24 1009.1 1009.4 0.2
23/04:00am 6.6 -3.1 3.8 82 1.2 NW 44 52 24 28 1009.2 1009.5 0.2
23/03:30am 6.6 -3.5 3.6 81 1.3 NW 46 57 25 31 1009.0 1009.3 0.2
23/03:00am 7.0 -3.0 2.3 72 2.0 NNW 44 52 24 28 1008.6 1008.9 0.0
23/02:30am 7.0 -3.0 2.1 71 2.0 NNW 44 54 24 29 1008.8 1009.1 0.0
23/02:00am 7.3 -3.1 2.2 70 2.1 NNW 46 54 25 29 1008.8 1009.1 0.0
23/01:30am 7.4 -3.3 2.3 70 2.1 NNW 48 57 26 31 1009.0 1009.3 0.0
23/01:00am 7.5 -4.0 2.2 69 2.2 NNW 52 57 28 31 1009.1 1009.4 0.0
23/12:30am 8.0 -3.8 2.5 68 2.3 NNW 54 61 29 33 1009.3 1009.6 0.0
23/12:00am 8.2 -3.7 2.4 67 2.5 NNW 54 67 29 36 1009.7 1010.1 0.0
 
Date/Time
EST
Temp
°C
App
Temp
°C
Dew
Point
°C
Rel
Hum
%
Delta-T
°C
Wind Press
QNH
hPa
Press
MSL
hPa
Rain since
9am
mm
Dir  Spd
km/h
Gust
km/h
Spd
kts
Gust
kts
22/11:30pm 8.6 -3.6 2.4 65 2.6 NNW 56 70 30 38 1009.5 1009.9 0.0
22/11:00pm 9.0 -3.8 2.3 63 2.9 NNW 59 69 32 37 1009.8 1010.2 0.0
22/10:30pm 9.2 -3.0 2.5 63 2.9 NNW 56 67 30 36 1009.9 1010.3 0.0
22/10:00pm 9.0 -3.2 2.8 65 2.7 N 56 63 30 34 1010.1 1010.5 0.0
22/09:30pm 8.6 -2.4 3.0 68 2.4 N 50 59 27 32 1010.5 1010.9 0.0
22/09:00pm 8.5 -2.0 3.4 70 2.2 N 48 54 26 29 1010.9 1011.3 0.0
22/08:30pm 8.9 -2.4 3.3 68 2.4 N 52 65 28 35 1011.0 1011.4 0.0
22/08:00pm 8.9 -2.4 3.5 69 2.4 N 52 65 28 35 1011.3 1011.7 0.0
22/07:30pm 9.0 -2.2 3.8 70 2.3 NNW 52 61 28 33 1011.4 1011.8 0.0
22/07:00pm 9.1 -0.9 4.1 71 2.2 NNW 46 59 25 32 1011.5 1011.9 0.0
22/06:30pm 8.7 -0.7 4.3 74 2.0 NNW 43 50 23 27 1011.5 1011.9 0.0
22/06:00pm 8.8 -0.2 4.4 74 2.0 NNW 41 50 22 27 1011.5 1011.9 0.0
22/05:30pm 9.2 0.2 4.4 72 2.2 NNW 41 50 22 27 1011.4 1011.8 0.0
22/05:00pm 9.5 0.5 4.5 71 2.3 NNW 41 48 22 26 1011.4 1011.8 0.0
22/04:30pm 10.1 0.2 4.7 69 2.5 N 46 56 25 30 1011.4 1011.8 0.0
22/04:00pm 10.6 0.8 5.4 70 2.4 N 46 54 25 29 1011.5 1011.9 0.0
22/03:30pm 11.1 0.5 5.0 66 2.8 NNW 50 61 27 33 1011.3 1011.7 0.0
22/03:00pm 11.4 1.9 5.1 65 2.9 NNW 44 52 24 28 1012.0 1012.3 0.0
22/02:30pm 11.3 0.5 4.3 62 3.2 NNW 50 59 27 32 1012.3 1012.6 0.0
22/02:00pm 11.9 -0.2 4.4 60 3.4 NNW 57 67 31 36 1012.2 1012.5 0.0
22/01:30pm 11.8 0.3 4.5 61 3.4 NNW 54 65 29 35 1012.6 1013.0 0.0
22/01:00pm 11.3 -0.8 4.3 62 3.2 NNW 57 70 31 38 1013.0 1013.4 0.0
22/12:30pm 10.4 -0.9 3.7 63 3.0 NNW 52 65 28 35 1013.6 1014.0 0.0
22/12:00pm 9.2 -2.5 3.6 68 2.5 NNW 54 65 29 35 1014.4 1014.8 0.0
22/11:43am 8.9 -2.1 2.9 66 2.6 NNW 50 69 27 37 1014.3 1014.7 0.0
22/11:30am 8.7 -2.0 2.7 66 2.6 NNW 48 57 26 31 1015.0 1015.4 0.0
22/11:00am 8.5 -2.6 2.5 66 2.6 NNW 50 61 27 33 1015.1 1015.5 0.0
22/10:30am 8.2 -1.8 2.4 67 2.5 N 44 57 24 31 1015.6 1016.0 0.0
22/10:00am 7.7 -1.3 2.2 68 2.3 N 39 46 21 25 1016.7 1017.1 0.0
22/09:30am 7.4 0.1 2.5 71 2.1 N 30 37 16 20 1017.3 1017.7 0.0
22/09:00am 7.0 -0.3 2.3 72 2.0 N 30 41 16 22 1017.5 1017.9 0.0
22/08:30am 6.5 -0.1 2.0 73 1.9 N 26 35 14 19 1018.0 1018.4 0.0
22/08:00am 5.6 -3.5 1.7 76 1.6 N 39 48 21 26 1017.0 1017.4 0.0
22/07:30am 4.7 -4.0 1.7 81 1.2 N 37 43 20 23 1017.3 1017.7 0.0
22/07:00am 4.8 -5.0 2.0 82 1.1 NNW 43 48 23 26 1017.5 1017.9 0.0
22/06:30am 4.3 -4.4 1.8 84 1.0 NNW 37 43 20 23 1017.6 1018.0 0.0
22/06:00am 5.1 -1.2 1.8 79 1.3 NW 24 32 13 17 1018.0 1018.4 0.0
22/05:30am 5.3 0.0 2.0 79 1.3 NNW 19 20 10 11 1018.0 1018.4 0.0
22/05:00am 5.2 -1.8 2.2 81 1.2 NNW 28 30 15 16 1017.6 1018.0 0.0
22/04:30am 4.5 -2.5 1.7 82 1.1 NNW 28 32 15 17 1017.7 1018.1 0.0
22/04:00am 4.7 -3.3 1.9 82 1.1 NNW 33 37 18 20 1017.3 1017.7 0.0
22/03:30am 4.6 -4.1 2.0 83 1.1 NNW 37 43 20 23 1017.2 1017.6 0.0
22/03:00am 4.5 -3.9 1.7 82 1.1 NNW 35 39 19 21 1017.7 1018.1 0.0
22/02:30am 5.3 -2.1 2.1 80 1.3 NNW 30 37 16 20 1018.2 1018.6 0.0
22/02:00am 4.7 -2.3 1.9 82 1.1 N 28 33 15 18 1018.4 1018.8 0.0
22/01:30am 4.6 -2.4 2.0 83 1.1 N 28 33 15 18 1018.3 1018.7 0.0
22/01:00am 4.7 -3.0 2.4 85 0.9 N 32 35 17 19 1018.7 1019.1 0.0
22/12:30am 4.7 -3.0 2.4 85 0.9 N 32 35 17 19 1019.3 1019.8 0.0
22/12:00am 5.0 -2.7 3.2 88 0.8 N 33 39 18 21 1019.7 1020.2 0.0
 
Date/Time
EST
Temp
°C
App
Temp
°C
Dew
Point
°C
Rel
Hum
%
Delta-T
°C
Wind Press
QNH
hPa
Press
MSL
hPa
Rain since
9am
mm
Dir  Spd
km/h
Gust
km/h
Spd
kts
Gust
kts
21/11:30pm 4.4 -2.9 2.6 88 0.7 NNW 30 33 16 18 1020.3 1020.7 0.0
21/11:00pm 5.1 -2.5 3.0 86 0.9 NNW 32 35 17 19 1020.7 1021.1 0.0
21/10:30pm 5.2 -1.2 3.1 86 0.9 NNW 26 30 14 16 1020.9 1021.3 0.0
21/10:00pm 5.8 -0.2 3.5 85 1.0 NNW 24 28 13 15 1021.2 1021.6 0.0
21/09:30pm 5.7 0.1 3.4 85 1.0 NNW 22 26 12 14 1021.2 1021.6 0.0
21/09:00pm 6.2 -0.2 3.4 82 1.2 NNW 26 28 14 15 1021.0 1021.4 0.0
21/08:30pm 7.1 0.4 3.5 78 1.6 N 28 30 15 16 1020.7 1021.1 0.0
21/08:00pm 7.3 0.6 3.5 77 1.6 N 28 32 15 17 1020.5 1020.9 0.0
21/07:30pm 7.2 0.4 3.3 76 1.7 N 28 35 15 19 1020.5 1020.9 0.0
21/07:00pm 7.4 1.1 3.5 76 1.7 N 26 30 14 16 1020.7 1021.1 0.0
21/06:30pm 8.0 2.5 4.0 76 1.8 N 22 26 12 14 1020.5 1020.9 0.0
21/06:00pm 8.3 3.4 4.1 75 1.8 N 19 20 10 11 1020.4 1020.8 0.0
21/05:30pm 9.0 4.6 4.6 74 2.0 N 17 19 9 10 1020.4 1020.8 0.0
21/05:00pm 9.4 6.4 4.2 70 2.3 N 9 13 5 7 1020.4 1020.8 0.0
21/04:30pm 10.3 7.0 4.7 68 2.6 N 11 13 6 7 1020.5 1020.9 0.0
21/04:00pm 10.8 6.6 4.0 63 3.1 NNW 15 22 8 12 1020.6 1021.0 0.0
21/03:30pm 11.0 8.0 6.2 72 2.3 NNW 11 17 6 9 1020.8 1021.2 0.0
21/03:00pm 10.6 7.1 5.6 71 2.3 N 13 19 7 10 1020.9 1021.3 0.0

Other Formats:

Comma delimited format used in spreadsheet applications
http://www.bom.gov.au/fwo/IDV60801/IDV60801.95845.axf

JavaScript Object Notation format (JSON) in row-major order
http://www.bom.gov.au/fwo/IDV60801/IDV60801.95845.json